Time;durP1;ratioP1;P1;durP2;ratioP2;P2;SDS_P1;SDS_P2;PMS_P1;PMS_P2;Temp;Humidity;BMP_temperature;BMP_pressure;BME280_temperature;BME280_humidity;BME280_pressure;Samples;Min_cycle;Max_cycle;Signal;HPM_P1;HPM_P2
2023/07/28 00:01:32;;;;;;;2.20;1.15;;;23.10;52.00;;;;;;5061273;28;20024;-64
2023/07/28 00:03:58;;;;;;;2.05;1.20;;;23.10;52.00;;;;;;5077617;28;20590;-64
2023/07/28 00:06:24;;;;;;;1.63;1.00;;;23.10;52.00;;;;;;5077176;28;20063;-65
2023/07/28 00:08:49;;;;;;;2.03;1.10;;;23.10;51.90;;;;;;5076383;28;20043;-64
2023/07/28 00:11:16;;;;;;;1.52;0.98;;;23.10;51.90;;;;;;5091494;28;20035;-64
2023/07/28 00:13:42;;;;;;;1.70;1.10;;;23.10;52.00;;;;;;5077102;28;20513;-63
2023/07/28 00:16:09;;;;;;;2.13;1.10;;;23.10;51.90;;;;;;5075842;28;20552;-64
2023/07/28 00:18:35;;;;;;;1.40;0.98;;;23.10;51.90;;;;;;5075444;28;20027;-64
2023/07/28 00:21:01;;;;;;;1.63;1.10;;;23.10;52.00;;;;;;5061759;28;20433;-64
2023/07/28 00:23:27;;;;;;;1.63;1.10;;;23.10;51.90;;;;;;5074810;28;20111;-64
2023/07/28 00:25:53;;;;;;;2.20;1.20;;;23.10;51.90;;;;;;5076129;28;20039;-64
2023/07/28 00:28:18;;;;;;;1.75;1.17;;;23.10;52.00;;;;;;5060445;28;20372;-64
2023/07/28 00:30:44;;;;;;;1.55;1.02;;;23.10;51.90;;;;;;5076842;28;20035;-63
2023/07/28 00:33:10;;;;;;;1.85;1.20;;;23.10;52.00;;;;;;5058915;28;20032;-63
2023/07/28 00:35:35;;;;;;;2.00;1.17;;;23.10;51.90;;;;;;5079676;28;20475;-63
2023/07/28 00:38:01;;;;;;;2.05;1.20;;;23.10;51.90;;;;;;5079103;28;20024;-64
2023/07/28 00:40:27;;;;;;;2.03;1.13;;;23.10;52.00;;;;;;5080562;28;20029;-64
2023/07/28 00:42:52;;;;;;;1.75;1.00;;;23.10;52.00;;;;;;5063452;28;20538;-63
2023/07/28 00:45:18;;;;;;;1.42;1.00;;;23.10;51.90;;;;;;5081020;28;20059;-63
2023/07/28 00:47:44;;;;;;;1.00;0.80;;;23.10;51.90;;;;;;5081252;28;20027;-63
2023/07/28 00:50:10;;;;;;;2.33;1.00;;;23.10;51.90;;;;;;5079989;28;20040;-64
2023/07/28 00:52:36;;;;;;;2.10;1.10;;;23.10;51.90;;;;;;5079889;28;20150;-64
2023/07/28 00:55:02;;;;;;;1.50;1.00;;;23.10;51.90;;;;;;5079783;28;20028;-63
2023/07/28 00:57:28;;;;;;;1.60;1.10;;;23.10;51.90;;;;;;5079029;28;20024;-64
2023/07/28 00:59:54;;;;;;;1.63;1.10;;;23.00;51.90;;;;;;5080952;28;20032;-64
2023/07/28 01:02:20;;;;;;;1.70;1.00;;;23.00;51.90;;;;;;5080156;28;20680;-64
2023/07/28 01:04:47;;;;;;;1.75;1.00;;;23.10;52.00;;;;;;5067369;28;20032;-64
2023/07/28 01:07:38;;;;;;;2.20;1.20;;;23.10;51.90;;;;;;5079466;28;20417;-65
2023/07/28 01:10:26;;;;;;;1.45;0.95;;;23.10;52.00;;;;;;5072567;28;20395;-64
2023/07/28 01:12:51;;;;;;;1.48;1.10;;;23.10;52.00;;;;;;5094681;28;20028;-64
2023/07/28 01:15:17;;;;;;;1.30;0.90;;;23.10;51.90;;;;;;5079936;28;20032;-64
2023/07/28 01:17:43;;;;;;;1.25;1.00;;;23.00;51.90;;;;;;5080945;28;20110;-64
2023/07/28 01:20:10;;;;;;;1.60;1.00;;;23.00;51.90;;;;;;5081565;28;20388;-65
2023/07/28 01:23:09;;;;;;;1.33;0.93;;;23.10;51.90;;;;;;5079156;28;20029;-64
2023/07/28 01:25:54;;;;;;;1.88;1.20;;;23.00;51.90;;;;;;5095724;28;20387;-65
2023/07/28 01:28:20;;;;;;;2.28;1.00;;;23.10;51.90;;;;;;5079966;28;20037;-64
2023/07/28 01:30:47;;;;;;;1.75;1.10;;;23.00;51.90;;;;;;5079946;28;20102;-65
2023/07/28 01:33:12;;;;;;;1.88;1.10;;;23.00;51.90;;;;;;5079549;28;20831;-64
2023/07/28 01:35:38;;;;;;;1.52;1.00;;;23.00;51.90;;;;;;5079149;28;20024;-64
2023/07/28 01:38:04;;;;;;;1.52;1.00;;;23.00;51.90;;;;;;5076721;28;20404;-65
2023/07/28 01:40:30;;;;;;;1.52;1.08;;;23.00;51.90;;;;;;5080091;28;20032;-64
2023/07/28 01:42:56;;;;;;;2.00;1.10;;;23.00;51.90;;;;;;5081778;28;20024;-64
2023/07/28 01:45:22;;;;;;;1.77;1.13;;;23.00;51.90;;;;;;5078069;28;20077;-64
2023/07/28 01:47:47;;;;;;;1.88;1.20;;;23.00;51.90;;;;;;5078862;28;20118;-65
2023/07/28 01:50:13;;;;;;;1.92;1.10;;;23.10;51.90;;;;;;5079870;28;20024;-65
2023/07/28 01:52:38;;;;;;;1.10;0.90;;;23.00;51.80;;;;;;5085979;28;20028;-64
2023/07/28 01:55:06;;;;;;;1.33;0.95;;;23.00;51.90;;;;;;5075890;28;20123;-64
2023/07/28 01:57:33;;;;;;;1.38;1.00;;;23.00;51.90;;;;;;5078112;28;20024;-63
2023/07/28 01:59:59;;;;;;;1.42;1.00;;;23.00;51.90;;;;;;5077105;28;20330;-64
2023/07/28 02:02:25;;;;;;;1.63;1.10;;;23.00;51.90;;;;;;5079311;28;20031;-64
2023/07/28 02:04:50;;;;;;;1.50;1.10;;;23.00;51.90;;;;;;5080267;28;20039;-64
2023/07/28 02:07:16;;;;;;;1.50;1.00;;;23.00;51.90;;;;;;5080526;28;20034;-64
2023/07/28 02:09:42;;;;;;;1.70;1.08;;;23.00;51.90;;;;;;5077293;28;20029;-64
2023/07/28 02:12:08;;;;;;;1.83;1.02;;;23.00;51.90;;;;;;5079173;28;20028;-64
2023/07/28 02:14:33;;;;;;;1.48;1.00;;;23.00;51.90;;;;;;5077651;28;20111;-64
2023/07/28 02:16:59;;;;;;;1.08;0.93;;;23.00;52.40;;;;;;5078069;28;20396;-63
2023/07/28 02:19:25;;;;;;;1.63;0.98;;;23.00;51.90;;;;;;5079884;28;20103;-64
2023/07/28 02:21:51;;;;;;;1.60;1.00;;;23.00;51.90;;;;;;5077548;28;20033;-64
2023/07/28 02:24:16;;;;;;;1.95;1.13;;;23.00;51.90;;;;;;5076535;28;20491;-65
2023/07/28 02:26:42;;;;;;;1.45;0.95;;;23.00;51.90;;;;;;5062635;28;20384;-64
2023/07/28 02:29:07;;;;;;;1.58;1.00;;;23.00;51.90;;;;;;5077801;28;20028;-64
2023/07/28 02:31:33;;;;;;;1.65;1.10;;;23.00;51.90;;;;;;5077911;28;20024;-64
2023/07/28 02:33:59;;;;;;;1.80;1.00;;;23.00;51.90;;;;;;5078165;28;20032;-64
2023/07/28 02:36:24;;;;;;;1.60;1.02;;;23.00;51.90;;;;;;5078352;28;20023;-64
2023/07/28 02:38:50;;;;;;;1.90;1.10;;;23.00;51.90;;;;;;5077339;28;20024;-65
2023/07/28 02:41:15;;;;;;;1.30;1.00;;;23.00;51.90;;;;;;5078538;28;20031;-65
2023/07/28 02:43:41;;;;;;;1.55;1.08;;;23.00;51.90;;;;;;5076738;28;20515;-65
2023/07/28 02:46:07;;;;;;;1.58;0.90;;;23.00;52.40;;;;;;5076218;28;20024;-65
2023/07/28 02:48:32;;;;;;;1.55;1.13;;;23.00;51.90;;;;;;5076475;28;20033;-65
2023/07/28 02:50:58;;;;;;;1.98;1.10;;;23.00;51.90;;;;;;5078060;28;20032;-64
2023/07/28 02:53:24;;;;;;;1.40;1.00;;;23.00;51.90;;;;;;5074522;28;20032;-65
2023/07/28 02:55:49;;;;;;;1.40;1.05;;;23.00;51.90;;;;;;5077107;28;20032;-64
2023/07/28 02:58:15;;;;;;;1.73;0.82;;;22.90;51.80;;;;;;5091147;28;20104;-64
2023/07/28 03:00:41;;;;;;;1.10;0.90;;;22.90;51.80;;;;;;5078997;28;20056;-64
2023/07/28 03:03:10;;;;;;;1.83;1.10;;;22.90;51.80;;;;;;5076586;28;20051;-63
2023/07/28 03:05:36;;;;;;;1.42;1.10;;;23.00;51.90;;;;;;5077908;28;20553;-63
2023/07/28 03:08:02;;;;;;;1.00;0.90;;;22.90;51.80;;;;;;5078185;28;20036;-64
2023/07/28 03:10:28;;;;;;;2.00;1.10;;;23.00;51.90;;;;;;5074477;28;20476;-63
2023/07/28 03:12:53;;;;;;;1.52;1.00;;;22.90;51.80;;;;;;5078282;28;20031;-63
2023/07/28 03:15:21;;;;;;;1.95;1.20;;;23.00;51.90;;;;;;5059316;28;20038;-63
2023/07/28 03:17:48;;;;;;;1.58;1.10;;;23.00;51.90;;;;;;5078636;28;20020;-64
2023/07/28 03:20:13;;;;;;;1.77;1.00;;;22.90;51.80;;;;;;5065589;28;20487;-63
2023/07/28 03:22:39;;;;;;;2.00;1.00;;;23.00;51.90;;;;;;5077842;28;20093;-64
2023/07/28 03:25:05;;;;;;;1.27;0.90;;;22.90;51.80;;;;;;5073976;28;20052;-63
2023/07/28 03:27:30;;;;;;;1.48;1.05;;;22.90;51.80;;;;;;5079290;28;20322;-63
2023/07/28 03:29:56;;;;;;;1.58;1.00;;;23.00;51.90;;;;;;5076138;28;20472;-64
2023/07/28 03:32:22;;;;;;;1.27;0.90;;;22.90;51.80;;;;;;5077011;28;20429;-63
2023/07/28 03:34:47;;;;;;;1.55;1.02;;;22.90;51.80;;;;;;5078253;28;20020;-63
2023/07/28 03:37:13;;;;;;;1.33;0.98;;;22.90;51.80;;;;;;5078191;28;20103;-63
2023/07/28 03:39:39;;;;;;;1.10;0.90;;;23.00;51.90;;;;;;5074567;28;20051;-63
2023/07/28 03:42:05;;;;;;;1.05;0.90;;;23.00;51.90;;;;;;5076966;28;20028;-63
2023/07/28 03:44:30;;;;;;;1.33;0.98;;;22.90;51.80;;;;;;5076924;28;20040;-62
2023/07/28 03:46:56;;;;;;;1.13;1.02;;;22.90;51.80;;;;;;5078205;28;20788;-63
2023/07/28 03:49:22;;;;;;;1.40;0.93;;;22.90;51.80;;;;;;5078252;28;20135;-63
2023/07/28 03:51:47;;;;;;;1.73;1.15;;;22.90;51.90;;;;;;5077043;28;20477;-64
2023/07/28 03:54:13;;;;;;;1.50;0.90;;;22.90;51.80;;;;;;5077206;28;20029;-63
2023/07/28 03:56:38;;;;;;;1.50;1.00;;;22.90;51.90;;;;;;5079410;28;20820;-63
2023/07/28 03:59:05;;;;;;;1.45;1.00;;;22.90;51.80;;;;;;5076910;28;20024;-63
2023/07/28 04:01:31;;;;;;;1.55;1.00;;;22.90;51.90;;;;;;5076921;28;20020;-64
2023/07/28 04:03:57;;;;;;;1.88;1.10;;;22.90;51.80;;;;;;5076046;28;20035;-63
2023/07/28 04:06:43;;;;;;;1.70;1.00;;;22.90;51.90;;;;;;5077484;28;20162;-63
2023/07/28 04:09:08;;;;;;;1.10;0.93;;;22.90;51.90;;;;;;5076939;28;20056;-63
2023/07/28 04:11:34;;;;;;;1.73;0.88;;;22.90;51.90;;;;;;5082355;28;20028;-64
2023/07/28 04:14:00;;;;;;;1.58;0.90;;;22.90;51.90;;;;;;5079166;28;20040;-64
2023/07/28 04:16:26;;;;;;;1.67;0.90;;;22.90;51.90;;;;;;5082000;28;20036;-63
2023/07/28 04:18:51;;;;;;;0.80;0.80;;;22.90;51.90;;;;;;5080060;28;20481;-63
2023/07/28 04:21:17;;;;;;;1.13;0.90;;;22.90;51.90;;;;;;5080553;28;20032;-63
2023/07/28 04:23:43;;;;;;;1.23;0.90;;;22.90;51.90;;;;;;5081041;28;20385;-62
2023/07/28 04:26:09;;;;;;;1.50;0.98;;;22.90;51.90;;;;;;5079991;28;20074;-64
2023/07/28 04:28:34;;;;;;;1.67;0.95;;;22.90;51.90;;;;;;5070757;28;20039;-64
2023/07/28 04:31:00;;;;;;;1.17;0.90;;;22.90;51.90;;;;;;5080655;28;20119;-63
2023/07/28 04:33:26;;;;;;;1.60;1.20;;;22.90;51.90;;;;;;5081294;28;20111;-63
2023/07/28 04:35:51;;;;;;;1.48;1.00;;;22.90;51.90;;;;;;5081905;28;20570;-64
2023/07/28 04:38:18;;;;;;;1.25;0.90;;;22.90;51.90;;;;;;5081104;28;20913;-64
2023/07/28 04:40:44;;;;;;;1.40;1.00;;;22.90;51.90;;;;;;5078724;28;20044;-63
2023/07/28 04:43:10;;;;;;;1.52;1.00;;;22.90;51.90;;;;;;5081889;28;20745;-63
2023/07/28 04:45:35;;;;;;;1.65;1.02;;;22.90;51.90;;;;;;5078667;28;20028;-63
2023/07/28 04:48:01;;;;;;;1.50;0.95;;;22.90;51.90;;;;;;5062539;28;20044;-63
2023/07/28 04:50:27;;;;;;;1.30;0.98;;;22.90;51.90;;;;;;5081136;28;20020;-64
2023/07/28 04:52:53;;;;;;;1.60;1.10;;;22.90;51.90;;;;;;5080431;28;20028;-63
2023/07/28 04:55:18;;;;;;;1.13;0.90;;;22.90;51.90;;;;;;5079305;28;20387;-64
2023/07/28 04:57:44;;;;;;;1.52;1.02;;;22.90;51.90;;;;;;5067129;28;20468;-63
2023/07/28 05:00:10;;;;;;;1.88;1.10;;;22.90;51.90;;;;;;5079272;28;20070;-62
2023/07/28 05:02:36;;;;;;;1.20;1.00;;;22.90;51.80;;;;;;5078784;28;20055;-63
2023/07/28 05:05:01;;;;;;;2.25;1.30;;;22.90;51.90;;;;;;5079546;28;20051;-64
2023/07/28 05:07:28;;;;;;;1.35;1.10;;;22.90;51.80;;;;;;5080717;28;20440;-63
2023/07/28 05:09:54;;;;;;;2.10;1.50;;;22.90;51.80;;;;;;5077602;28;20028;-63
2023/07/28 05:12:20;;;;;;;1.27;1.00;;;22.90;51.90;;;;;;5080235;28;20495;-64
2023/07/28 05:14:46;;;;;;;1.50;1.10;;;22.90;51.80;;;;;;5083047;28;20024;-63
2023/07/28 05:17:11;;;;;;;1.60;1.00;;;22.90;51.80;;;;;;5080647;28;20055;-63
2023/07/28 05:19:37;;;;;;;1.83;1.08;;;22.90;51.90;;;;;;5080144;28;20020;-63
2023/07/28 05:22:03;;;;;;;1.73;1.20;;;22.90;51.90;;;;;;5079607;28;20052;-63
2023/07/28 05:24:29;;;;;;;1.60;1.10;;;22.90;51.90;;;;;;5080880;28;20031;-63
2023/07/28 05:26:54;;;;;;;1.65;1.00;;;22.90;51.90;;;;;;5069239;28;20032;-64
2023/07/28 05:29:20;;;;;;;1.85;1.30;;;22.90;51.90;;;;;;5080858;28;20070;-63
2023/07/28 05:31:46;;;;;;;1.23;1.10;;;22.90;51.90;;;;;;5079058;28;20071;-63
2023/07/28 05:34:12;;;;;;;1.88;1.17;;;22.90;51.90;;;;;;5067846;28;20043;-63
2023/07/28 05:36:38;;;;;;;2.17;1.17;;;22.90;51.80;;;;;;5080709;28;20028;-61
2023/07/28 05:39:04;;;;;;;1.77;1.13;;;22.90;51.80;;;;;;5080147;28;20435;-61
2023/07/28 05:41:30;;;;;;;1.60;1.15;;;22.90;51.90;;;;;;5078229;28;20180;-64
2023/07/28 05:43:55;;;;;;;1.67;1.10;;;22.90;51.90;;;;;;5062734;28;20031;-64
2023/07/28 05:46:21;;;;;;;2.15;1.27;;;22.80;51.80;;;;;;5079499;28;20085;-63
2023/07/28 05:48:47;;;;;;;1.15;1.00;;;22.80;51.80;;;;;;5062827;28;20067;-64
2023/07/28 05:51:12;;;;;;;2.00;1.00;;;22.80;51.90;;;;;;5080810;28;20078;-64
2023/07/28 05:53:38;;;;;;;1.30;1.00;;;22.80;51.80;;;;;;5079366;28;20032;-63
2023/07/28 05:56:04;;;;;;;2.50;1.30;;;22.90;51.90;;;;;;5077937;28;20491;-63
2023/07/28 05:58:29;;;;;;;1.50;1.10;;;22.80;51.80;;;;;;5078783;28;20048;-63
2023/07/28 06:00:55;;;;;;;1.80;1.25;;;22.90;51.90;;;;;;5078679;28;20194;-64
2023/07/28 06:03:21;;;;;;;2.08;1.30;;;22.80;51.90;;;;;;5078311;28;20040;-64
2023/07/28 06:05:47;;;;;;;1.60;1.23;;;22.80;51.90;;;;;;5078609;28;20024;-63
2023/07/28 06:08:13;;;;;;;1.75;1.20;;;22.80;51.90;;;;;;5076994;28;20058;-63
2023/07/28 06:10:39;;;;;;;1.33;1.08;;;22.90;52.00;;;;;;5075956;28;20107;-63
2023/07/28 06:13:05;;;;;;;1.55;1.00;;;22.80;51.90;;;;;;5080630;28;20555;-64
2023/07/28 06:15:30;;;;;;;1.27;1.10;;;22.90;52.00;;;;;;5078127;28;20463;-63
2023/07/28 06:17:56;;;;;;;2.08;1.25;;;22.80;51.90;;;;;;5078904;28;20036;-63
2023/07/28 06:20:22;;;;;;;1.80;1.20;;;22.90;52.00;;;;;;5078144;28;20383;-64
2023/07/28 06:22:47;;;;;;;1.80;1.20;;;22.90;52.00;;;;;;5078507;28;20028;-63
2023/07/28 06:25:13;;;;;;;1.23;0.95;;;22.80;51.90;;;;;;5076639;28;20033;-63
2023/07/28 06:27:38;;;;;;;2.17;1.20;;;22.80;52.00;;;;;;5061855;28;20047;-64
2023/07/28 06:30:05;;;;;;;2.05;1.30;;;22.80;52.00;;;;;;5059513;28;20028;-64
2023/07/28 06:32:31;;;;;;;1.85;1.17;;;22.80;52.00;;;;;;5076489;28;20395;-63
2023/07/28 06:34:57;;;;;;;1.52;1.20;;;22.80;52.00;;;;;;5078576;28;20017;-63
2023/07/28 06:37:23;;;;;;;1.42;1.05;;;22.80;52.00;;;;;;5077777;28;20021;-64
2023/07/28 06:39:49;;;;;;;1.60;1.10;;;22.80;52.00;;;;;;5077890;28;20024;-64
2023/07/28 06:42:16;;;;;;;1.92;1.27;;;22.80;52.00;;;;;;5057806;28;20036;-63
2023/07/28 06:44:42;;;;;;;1.52;1.10;;;22.80;52.00;;;;;;5077837;28;20024;-63
2023/07/28 06:47:07;;;;;;;1.85;1.30;;;22.80;52.00;;;;;;5064231;28;20048;-63
2023/07/28 06:49:33;;;;;;;2.05;1.27;;;22.80;52.00;;;;;;5077054;28;20120;-63
2023/07/28 06:51:59;;;;;;;2.67;1.30;;;22.80;52.00;;;;;;5078683;28;20035;-63
2023/07/28 06:54:24;;;;;;;1.98;1.30;;;22.80;52.10;;;;;;5078048;28;20494;-63
2023/07/28 06:56:50;;;;;;;1.85;1.40;;;22.80;52.10;;;;;;5089075;28;20067;-64
2023/07/28 06:59:16;;;;;;;1.70;1.30;;;22.80;52.00;;;;;;5076739;28;20031;-64
2023/07/28 07:01:42;;;;;;;1.85;1.27;;;22.80;52.00;;;;;;5079499;28;20671;-64
2023/07/28 07:04:07;;;;;;;3.08;1.40;;;22.80;52.10;;;;;;5075949;28;20931;-63
2023/07/28 07:06:33;;;;;;;2.00;1.33;;;22.80;52.10;;;;;;5079430;28;20091;-64
2023/07/28 07:08:59;;;;;;;1.88;1.23;;;22.80;52.10;;;;;;5077293;28;20033;-64
2023/07/28 07:11:24;;;;;;;2.30;1.20;;;22.80;52.10;;;;;;5073431;28;20103;-64
2023/07/28 07:13:50;;;;;;;1.58;1.13;;;22.80;52.10;;;;;;5077039;28;20472;-64
2023/07/28 07:16:17;;;;;;;1.90;1.40;;;22.80;52.10;;;;;;5076310;28;20025;-64
2023/07/28 07:18:45;;;;;;;1.70;1.23;;;22.80;52.10;;;;;;5076900;28;20424;-64
2023/07/28 07:21:11;;;;;;;1.85;1.40;;;22.80;52.10;;;;;;5078051;28;20036;-63
2023/07/28 07:23:37;;;;;;;2.03;1.40;;;22.80;52.20;;;;;;5063527;28;20446;-63
2023/07/28 07:26:03;;;;;;;1.70;1.25;;;22.80;52.20;;;;;;5073958;28;20058;-64
2023/07/28 07:28:28;;;;;;;1.85;1.40;;;22.80;52.20;;;;;;5075853;28;20028;-64
2023/07/28 07:30:57;;;;;;;1.90;1.23;;;22.80;52.20;;;;;;5060606;28;20032;-63
2023/07/28 07:33:24;;;;;;;1.92;1.20;;;22.80;52.20;;;;;;5077097;28;20044;-63
2023/07/28 07:35:50;;;;;;;1.88;1.30;;;22.80;52.20;;;;;;5077746;28;20031;-64
2023/07/28 07:38:15;;;;;;;2.10;1.25;;;22.80;52.20;;;;;;5077881;28;20571;-63
2023/07/28 07:40:41;;;;;;;1.83;1.35;;;22.80;52.30;;;;;;5075177;28;20146;-64
2023/07/28 07:43:07;;;;;;;1.85;1.20;;;22.80;52.20;;;;;;5076973;28;20078;-63
2023/07/28 07:45:33;;;;;;;2.28;1.50;;;22.80;52.30;;;;;;5080184;28;20035;-64
2023/07/28 07:47:59;;;;;;;1.90;1.40;;;22.80;52.30;;;;;;5082404;28;20500;-64
2023/07/28 07:50:24;;;;;;;1.83;1.20;;;22.80;52.30;;;;;;5081418;28;20032;-64
2023/07/28 07:52:50;;;;;;;2.05;1.40;;;22.80;52.30;;;;;;5081059;28;20378;-63
2023/07/28 07:55:16;;;;;;;2.08;1.50;;;22.80;52.30;;;;;;5081542;28;20452;-65
2023/07/28 07:57:41;;;;;;;2.22;1.45;;;22.80;52.30;;;;;;5078672;28;20043;-63
2023/07/28 08:00:08;;;;;;;1.88;1.40;;;22.80;52.30;;;;;;5082139;28;20028;-64
2023/07/28 08:02:34;;;;;;;1.90;1.30;;;22.80;52.40;;;;;;5079302;28;20017;-64
2023/07/28 08:05:00;;;;;;;2.05;1.50;;;22.80;52.40;;;;;;5081414;28;20021;-63
2023/07/28 08:07:26;;;;;;;2.20;1.42;;;22.80;52.40;;;;;;5078294;28;20029;-63
2023/07/28 08:09:52;;;;;;;2.13;1.40;;;22.80;52.40;;;;;;5096545;28;20111;-63
2023/07/28 08:12:17;;;;;;;2.10;1.35;;;22.80;52.40;;;;;;5079707;28;20107;-63
2023/07/28 08:14:43;;;;;;;1.60;1.23;;;22.80;52.40;;;;;;5080072;28;20119;-64
2023/07/28 08:17:10;;;;;;;1.70;1.30;;;22.80;52.40;;;;;;5082244;28;20028;-64
2023/07/28 08:19:35;;;;;;;3.22;1.40;;;22.80;52.50;;;;;;5063710;28;20514;-64
2023/07/28 08:22:03;;;;;;;2.30;1.42;;;22.80;52.50;;;;;;5061124;28;20024;-63
2023/07/28 08:24:29;;;;;;;2.00;1.30;;;22.80;52.50;;;;;;5079873;28;20101;-64
2023/07/28 08:26:55;;;;;;;1.98;1.48;;;22.80;52.60;;;;;;5080252;28;20035;-63
2023/07/28 08:29:20;;;;;;;1.65;1.30;;;22.80;52.60;;;;;;5080813;28;20444;-63
2023/07/28 08:31:46;;;;;;;1.80;1.30;;;22.80;52.60;;;;;;5080979;28;20028;-64
2023/07/28 08:34:12;;;;;;;1.98;1.30;;;22.80;52.60;;;;;;5078947;28;20357;-63
2023/07/28 08:36:38;;;;;;;2.22;1.58;;;22.80;52.60;;;;;;5081188;28;20429;-63
2023/07/28 08:39:04;;;;;;;2.22;1.40;;;22.80;52.70;;;;;;5080652;28;20047;-63
2023/07/28 08:41:30;;;;;;;2.05;1.23;;;22.80;52.70;;;;;;5069625;28;20017;-63
2023/07/28 08:43:57;;;;;;;1.80;1.30;;;22.80;52.70;;;;;;5065101;28;20024;-63
2023/07/28 08:46:23;;;;;;;2.35;1.35;;;22.80;52.70;;;;;;5079372;28;20436;-63
2023/07/28 08:48:48;;;;;;;1.88;1.40;;;22.80;52.80;;;;;;5080215;28;20036;-63
2023/07/28 08:51:14;;;;;;;2.17;1.40;;;22.80;52.80;;;;;;5078854;28;20078;-64
2023/07/28 08:53:40;;;;;;;2.15;1.40;;;22.80;52.80;;;;;;5080122;28;20055;-64
2023/07/28 08:56:06;;;;;;;1.85;1.40;;;22.80;52.80;;;;;;5078904;28;20664;-63
2023/07/28 08:58:32;;;;;;;1.65;1.40;;;22.90;52.90;;;;;;5095972;28;20052;-64
2023/07/28 09:01:01;;;;;;;1.67;1.20;;;22.90;52.90;;;;;;5079882;28;20059;-64
2023/07/28 09:03:27;;;;;;;1.90;1.20;;;22.80;52.80;;;;;;5078709;28;20597;-63
2023/07/28 09:06:02;;;;;;;2.28;1.20;;;22.80;52.80;;;;;;5080327;28;20055;-64
2023/07/28 09:08:30;;;;;;;1.92;1.33;;;22.90;52.90;;;;;;5078454;28;20028;-64
2023/07/28 09:10:56;;;;;;;2.83;1.20;;;22.90;52.90;;;;;;5080588;28;20024;-64
2023/07/28 09:13:22;;;;;;;1.63;1.20;;;22.80;52.80;;;;;;5077362;28;20549;-63
2023/07/28 09:15:47;;;;;;;2.30;1.35;;;22.90;52.90;;;;;;5076669;28;20038;-64
2023/07/28 09:18:16;;;;;;;2.17;1.30;;;22.90;52.90;;;;;;5078402;28;20095;-63
2023/07/28 09:20:42;;;;;;;1.83;1.30;;;22.90;52.90;;;;;;5080201;28;20024;-64
2023/07/28 09:23:08;;;;;;;1.58;1.10;;;22.90;52.80;;;;;;5078951;28;20650;-64
2023/07/28 09:25:38;;;;;;;1.80;1.30;;;22.90;53.40;;;;;;5094339;28;20060;-63
2023/07/28 09:28:05;;;;;;;1.38;1.13;;;22.90;52.80;;;;;;5078610;28;20496;-63
2023/07/28 09:30:49;;;;;;;1.85;1.30;;;22.90;52.90;;;;;;5080256;28;20719;-64
2023/07/28 09:33:32;;;;;;;1.73;1.20;;;22.90;52.90;;;;;;5080411;28;20032;-64
2023/07/28 09:36:10;;;;;;;1.88;1.25;;;22.90;52.80;;;;;;5078234;28;20024;-63
2023/07/28 09:38:41;;;;;;;1.50;1.17;;;22.90;52.90;;;;;;5069365;28;20423;-64
2023/07/28 09:41:11;;;;;;;1.50;1.10;;;22.90;52.80;;;;;;5077273;28;20020;-63
2023/07/28 09:43:40;;;;;;;1.80;1.30;;;22.90;53.40;;;;;;5077705;28;20032;-64
2023/07/28 09:46:10;;;;;;;1.48;1.20;;;22.90;52.90;;;;;;5079221;28;20039;-63
2023/07/28 09:48:38;;;;;;;1.77;1.20;;;22.90;52.90;;;;;;5078593;28;20505;-63
2023/07/28 09:51:20;;;;;;;1.75;1.25;;;22.90;52.90;;;;;;5078181;28;20052;-63
2023/07/28 09:53:55;;;;;;;2.05;1.20;;;22.90;52.80;;;;;;5079185;28;20044;-63
2023/07/28 09:56:26;;;;;;;1.92;1.33;;;22.90;52.80;;;;;;5062332;28;20497;-63
2023/07/28 09:58:53;;;;;;;1.77;1.20;;;22.90;52.80;;;;;;5076152;28;20396;-63
2023/07/28 10:01:23;;;;;;;1.70;1.10;;;22.90;52.70;;;;;;5077659;28;20055;-63
2023/07/28 10:03:49;;;;;;;2.00;1.38;;;22.90;52.80;;;;;;5078261;28;20024;-64
2023/07/28 10:06:16;;;;;;;1.80;1.30;;;22.90;52.70;;;;;;5079046;28;20033;-63
2023/07/28 10:08:43;;;;;;;1.70;1.20;;;22.90;52.70;;;;;;5078757;28;20034;-63
2023/07/28 10:11:11;;;;;;;1.83;1.20;;;22.90;52.70;;;;;;5078751;28;20043;-63
2023/07/28 10:13:42;;;;;;;1.80;1.30;;;22.90;52.70;;;;;;5077920;28;20033;-63
2023/07/28 10:16:09;;;;;;;1.77;1.30;;;22.90;52.70;;;;;;5077421;28;20396;-63
2023/07/28 10:18:35;;;;;;;1.83;1.20;;;22.90;52.70;;;;;;5062386;28;20074;-63
2023/07/28 10:21:13;;;;;;;1.40;1.10;;;22.90;52.70;;;;;;5078375;28;20038;-64
2023/07/28 10:23:39;;;;;;;2.08;1.10;;;22.90;52.70;;;;;;5063184;28;20138;-63
2023/07/28 10:26:08;;;;;;;1.60;1.15;;;22.90;52.70;;;;;;5061259;28;20207;-64
2023/07/28 10:28:38;;;;;;;2.15;1.30;;;23.00;52.80;;;;;;5077202;28;20051;-63
2023/07/28 10:31:06;;;;;;;1.67;1.20;;;22.90;52.70;;;;;;5078486;28;20060;-63
2023/07/28 10:33:39;;;;;;;1.83;1.20;;;22.90;53.00;;;;;;5092003;28;20056;-64
2023/07/28 10:36:18;;;;;;;1.40;1.10;;;23.00;52.80;;;;;;5078647;28;20039;-63
2023/07/28 10:38:43;;;;;;;1.60;1.25;;;23.00;52.90;;;;;;5078779;28;20108;-63
2023/07/28 10:41:13;;;;;;;1.58;1.15;;;23.00;52.90;;;;;;5080954;28;20120;-63
2023/07/28 10:43:40;;;;;;;1.63;1.10;;;23.00;52.90;;;;;;5076839;28;20452;-64
2023/07/28 10:46:08;;;;;;;1.55;1.10;;;23.00;52.90;;;;;;5077464;28;20488;-65
2023/07/28 10:48:41;;;;;;;1.47;1.10;;;23.00;52.90;;;;;;5077247;28;20361;-64
2023/07/28 10:51:07;;;;;;;1.52;1.10;;;23.00;53.00;;;;;;5078011;28;20691;-63
2023/07/28 10:53:34;;;;;;;1.52;1.15;;;23.00;53.00;;;;;;5076530;28;20101;-64
2023/07/28 10:56:03;;;;;;;2.35;1.40;;;23.00;53.00;;;;;;5061986;28;20020;-64
2023/07/28 10:58:28;;;;;;;2.00;1.10;;;23.00;53.20;;;;;;5075602;28;20024;-63
2023/07/28 11:00:54;;;;;;;1.67;1.15;;;23.00;53.10;;;;;;5077094;28;20036;-64
2023/07/28 11:03:20;;;;;;;1.95;1.17;;;23.00;53.20;;;;;;5078790;28;20031;-63
2023/07/28 11:05:48;;;;;;;1.52;1.20;;;23.00;53.20;;;;;;5078183;28;20028;-63
2023/07/28 11:08:13;;;;;;;1.63;1.20;;;23.00;53.20;;;;;;5079244;28;20492;-63
2023/07/28 11:10:40;;;;;;;1.60;1.20;;;23.00;53.20;;;;;;5092701;28;20064;-63
2023/07/28 11:13:06;;;;;;;1.58;1.05;;;23.00;53.20;;;;;;5061418;28;20038;-63
2023/07/28 11:15:33;;;;;;;1.52;1.10;;;23.00;53.20;;;;;;5076263;28;20531;-63
2023/07/28 11:17:58;;;;;;;1.98;1.40;;;23.00;53.20;;;;;;5063040;28;20073;-63
2023/07/28 11:20:26;;;;;;;1.45;1.10;;;23.00;53.20;;;;;;5075609;28;20032;-63
2023/07/28 11:22:54;;;;;;;1.85;1.10;;;23.00;53.20;;;;;;5075768;28;20027;-63
2023/07/28 11:25:21;;;;;;;2.08;1.30;;;23.00;53.10;;;;;;5077268;28;20135;-64
2023/07/28 11:27:47;;;;;;;1.45;1.10;;;23.10;53.20;;;;;;5060927;28;20507;-64
2023/07/28 11:30:15;;;;;;;1.50;1.10;;;23.00;53.10;;;;;;5078111;28;20020;-64
2023/07/28 11:32:44;;;;;;;1.65;1.17;;;23.00;53.10;;;;;;5073898;28;20490;-64
2023/07/28 11:35:14;;;;;;;1.88;1.10;;;23.00;53.10;;;;;;5059389;28;20074;-64
2023/07/28 11:37:45;;;;;;;1.73;0.90;;;23.10;53.10;;;;;;5078889;28;20493;-64
2023/07/28 11:40:12;;;;;;;1.40;1.10;;;23.10;53.10;;;;;;5076980;28;20029;-63
2023/07/28 11:42:45;;;;;;;1.48;1.10;;;23.10;53.10;;;;;;5077427;28;20024;-64
2023/07/28 11:45:13;;;;;;;1.90;1.20;;;23.10;53.10;;;;;;5080898;28;20479;-64
2023/07/28 11:47:39;;;;;;;1.40;1.00;;;23.10;53.10;;;;;;5076291;28;20032;-64
2023/07/28 11:50:05;;;;;;;2.00;1.30;;;23.10;53.10;;;;;;5074579;28;20048;-64
2023/07/28 11:52:37;;;;;;;1.60;1.10;;;23.10;53.10;;;;;;5076704;28;20044;-64
2023/07/28 11:55:06;;;;;;;1.80;1.30;;;23.10;53.10;;;;;;5079072;28;20029;-62
2023/07/28 11:57:32;;;;;;;1.42;1.10;;;23.10;53.10;;;;;;5078445;28;20028;-62
2023/07/28 11:59:58;;;;;;;1.80;1.30;;;23.10;53.00;;;;;;5075999;28;20028;-63
2023/07/28 12:02:29;;;;;;;1.48;1.10;;;23.10;53.10;;;;;;5077103;28;20022;-62
2023/07/28 12:04:57;;;;;;;1.55;1.10;;;23.10;53.00;;;;;;5079985;28;20075;-63
2023/07/28 12:07:33;;;;;;;1.60;1.20;;;23.10;53.00;;;;;;5077345;28;20044;-63
2023/07/28 12:10:09;;;;;;;1.88;1.20;;;23.10;53.10;;;;;;5076709;28;20032;-63
2023/07/28 12:12:44;;;;;;;1.50;1.20;;;23.10;53.00;;;;;;5078043;28;20488;-63
2023/07/28 12:15:28;;;;;;;1.70;1.20;;;23.10;53.00;;;;;;5078735;28;20047;-63
2023/07/28 12:18:14;;;;;;;1.48;1.17;;;23.10;53.00;;;;;;5060254;28;20016;-63
2023/07/28 12:20:46;;;;;;;1.73;1.02;;;23.10;53.00;;;;;;5077619;28;20096;-63
2023/07/28 12:23:19;;;;;;;1.50;1.17;;;23.10;53.00;;;;;;5077451;28;20089;-63
2023/07/28 12:25:45;;;;;;;1.25;1.00;;;23.10;53.00;;;;;;5077591;28;20395;-63
2023/07/28 12:28:11;;;;;;;1.27;1.00;;;23.10;53.00;;;;;;5076914;28;20107;-63
2023/07/28 12:30:37;;;;;;;1.45;1.17;;;23.10;53.50;;;;;;5077998;28;20024;-63
2023/07/28 12:33:04;;;;;;;1.35;1.08;;;23.10;53.00;;;;;;5076850;28;20109;-62
2023/07/28 12:35:32;;;;;;;1.45;1.15;;;23.10;53.00;;;;;;5081288;28;20388;-63
2023/07/28 12:38:01;;;;;;;1.30;1.00;;;23.10;52.90;;;;;;5080259;28;20024;-63
2023/07/28 12:40:30;;;;;;;1.58;1.10;;;23.10;52.90;;;;;;5081672;28;20451;-63
2023/07/28 12:42:57;;;;;;;1.48;1.05;;;23.10;52.80;;;;;;5080448;28;20066;-63
2023/07/28 12:45:25;;;;;;;1.98;1.10;;;23.10;52.90;;;;;;5078120;28;20403;-63
2023/07/28 12:47:54;;;;;;;1.55;1.15;;;23.10;52.80;;;;;;5079237;28;20012;-63